sensor_id;sensor_type;location;lat;lon;timestamp;P1;durP1;ratioP1;P2;durP2;ratioP2
1062;SDS011;520;50.932;6.962;2024-03-08T00:04:27;16.70;;;12.63;;
1062;SDS011;520;50.932;6.962;2024-03-08T00:10:39;17.80;;;12.63;;
1062;SDS011;520;50.932;6.962;2024-03-08T00:13:12;18.47;;;12.60;;
1062;SDS011;520;50.932;6.962;2024-03-08T00:15:50;15.63;;;12.20;;
1062;SDS011;520;50.932;6.962;2024-03-08T00:18:24;16.00;;;12.33;;
1062;SDS011;520;50.932;6.962;2024-03-08T00:21:00;17.47;;;12.77;;
1062;SDS011;520;50.932;6.962;2024-03-08T00:23:47;16.07;;;12.33;;
1062;SDS011;520;50.932;6.962;2024-03-08T00:27:02;15.00;;;11.13;;
1062;SDS011;520;50.932;6.962;2024-03-08T00:33:47;16.70;;;11.40;;
1062;SDS011;520;50.932;6.962;2024-03-08T00:36:32;16.87;;;12.10;;
1062;SDS011;520;50.932;6.962;2024-03-08T00:39:27;19.67;;;14.30;;
1062;SDS011;520;50.932;6.962;2024-03-08T00:42:27;20.23;;;12.50;;
1062;SDS011;520;50.932;6.962;2024-03-08T00:48:35;19.07;;;13.30;;
1062;SDS011;520;50.932;6.962;2024-03-08T00:51:26;18.17;;;12.73;;
1062;SDS011;520;50.932;6.962;2024-03-08T00:57:14;16.37;;;11.83;;
1062;SDS011;520;50.932;6.962;2024-03-08T01:03:26;20.20;;;13.67;;
1062;SDS011;520;50.932;6.962;2024-03-08T01:06:20;22.43;;;13.03;;
1062;SDS011;520;50.932;6.962;2024-03-08T01:12:06;17.43;;;13.60;;
1062;SDS011;520;50.932;6.962;2024-03-08T01:14:56;18.53;;;12.70;;
1062;SDS011;520;50.932;6.962;2024-03-08T01:17:35;20.20;;;13.90;;
1062;SDS011;520;50.932;6.962;2024-03-08T01:20:17;19.93;;;12.70;;
1062;SDS011;520;50.932;6.962;2024-03-08T01:22:50;14.57;;;9.63;;
1062;SDS011;520;50.932;6.962;2024-03-08T01:25:37;18.03;;;12.00;;
1062;SDS011;520;50.932;6.962;2024-03-08T01:28:25;19.73;;;12.90;;
1062;SDS011;520;50.932;6.962;2024-03-08T01:36:53;17.97;;;12.30;;
1062;SDS011;520;50.932;6.962;2024-03-08T01:39:35;20.60;;;13.87;;
1062;SDS011;520;50.932;6.962;2024-03-08T01:42:26;18.47;;;12.40;;
1062;SDS011;520;50.932;6.962;2024-03-08T01:45:20;17.90;;;13.70;;
1062;SDS011;520;50.932;6.962;2024-03-08T01:48:26;17.60;;;13.33;;
1062;SDS011;520;50.932;6.962;2024-03-08T01:51:20;17.13;;;12.60;;
1062;SDS011;520;50.932;6.962;2024-03-08T01:54:08;20.83;;;12.37;;
1062;SDS011;520;50.932;6.962;2024-03-08T01:56:58;18.83;;;13.13;;
1062;SDS011;520;50.932;6.962;2024-03-08T01:59:28;21.77;;;13.43;;
1062;SDS011;520;50.932;6.962;2024-03-08T02:02:00;19.40;;;13.50;;
1062;SDS011;520;50.932;6.962;2024-03-08T02:04:31;18.30;;;12.93;;
1062;SDS011;520;50.932;6.962;2024-03-08T02:07:13;20.73;;;13.80;;
1062;SDS011;520;50.932;6.962;2024-03-08T02:09:45;17.40;;;11.70;;
1062;SDS011;520;50.932;6.962;2024-03-08T02:12:34;21.93;;;12.43;;
1062;SDS011;520;50.932;6.962;2024-03-08T02:15:12;19.67;;;13.33;;
1062;SDS011;520;50.932;6.962;2024-03-08T02:17:44;17.00;;;12.97;;
1062;SDS011;520;50.932;6.962;2024-03-08T02:20:18;21.37;;;13.13;;
1062;SDS011;520;50.932;6.962;2024-03-08T02:23:03;18.93;;;12.47;;
1062;SDS011;520;50.932;6.962;2024-03-08T02:25:37;23.10;;;13.27;;
1062;SDS011;520;50.932;6.962;2024-03-08T02:28:25;17.37;;;12.07;;
1062;SDS011;520;50.932;6.962;2024-03-08T02:30:58;21.57;;;13.43;;
1062;SDS011;520;50.932;6.962;2024-03-08T02:33:33;21.23;;;14.23;;
1062;SDS011;520;50.932;6.962;2024-03-08T02:39:07;17.13;;;13.23;;
1062;SDS011;520;50.932;6.962;2024-03-08T02:41:37;18.37;;;12.83;;
1062;SDS011;520;50.932;6.962;2024-03-08T02:44:20;19.03;;;12.57;;
1062;SDS011;520;50.932;6.962;2024-03-08T02:46:56;18.57;;;12.90;;
1062;SDS011;520;50.932;6.962;2024-03-08T02:49:28;17.93;;;12.93;;
1062;SDS011;520;50.932;6.962;2024-03-08T02:52:11;20.80;;;14.10;;
1062;SDS011;520;50.932;6.962;2024-03-08T02:54:47;18.77;;;12.90;;
1062;SDS011;520;50.932;6.962;2024-03-08T02:57:25;19.33;;;13.10;;
1062;SDS011;520;50.932;6.962;2024-03-08T03:00:11;19.67;;;13.03;;
1062;SDS011;520;50.932;6.962;2024-03-08T03:02:40;17.50;;;12.60;;
1062;SDS011;520;50.932;6.962;2024-03-08T03:05:23;19.17;;;14.23;;
1062;SDS011;520;50.932;6.962;2024-03-08T03:07:57;16.80;;;11.83;;
1062;SDS011;520;50.932;6.962;2024-03-08T03:10:27;17.97;;;12.23;;
1062;SDS011;520;50.932;6.962;2024-03-08T03:12:55;19.07;;;13.10;;
1062;SDS011;520;50.932;6.962;2024-03-08T03:15:33;22.43;;;13.60;;
1062;SDS011;520;50.932;6.962;2024-03-08T03:18:02;20.67;;;14.10;;
1062;SDS011;520;50.932;6.962;2024-03-08T03:20:36;21.20;;;14.40;;
1062;SDS011;520;50.932;6.962;2024-03-08T03:23:13;22.67;;;11.83;;
1062;SDS011;520;50.932;6.962;2024-03-08T03:25:51;22.20;;;12.97;;
1062;SDS011;520;50.932;6.962;2024-03-08T03:28:25;17.73;;;10.83;;
1062;SDS011;520;50.932;6.962;2024-03-08T03:31:02;20.07;;;13.30;;
1062;SDS011;520;50.932;6.962;2024-03-08T03:33:49;19.03;;;11.70;;
1062;SDS011;520;50.932;6.962;2024-03-08T03:36:34;18.10;;;13.07;;
1062;SDS011;520;50.932;6.962;2024-03-08T03:39:12;21.23;;;13.73;;
1062;SDS011;520;50.932;6.962;2024-03-08T03:41:46;22.73;;;13.90;;
1062;SDS011;520;50.932;6.962;2024-03-08T03:44:40;22.10;;;14.53;;
1062;SDS011;520;50.932;6.962;2024-03-08T03:47:26;17.40;;;12.07;;
1062;SDS011;520;50.932;6.962;2024-03-08T03:50:05;22.23;;;13.40;;
1062;SDS011;520;50.932;6.962;2024-03-08T03:52:45;22.67;;;13.43;;
1062;SDS011;520;50.932;6.962;2024-03-08T03:55:16;21.00;;;12.70;;
1062;SDS011;520;50.932;6.962;2024-03-08T03:58:01;22.30;;;14.00;;
1062;SDS011;520;50.932;6.962;2024-03-08T04:00:37;22.10;;;14.73;;
1062;SDS011;520;50.932;6.962;2024-03-08T04:03:15;21.10;;;13.07;;
1062;SDS011;520;50.932;6.962;2024-03-08T04:05:47;19.53;;;13.97;;
1062;SDS011;520;50.932;6.962;2024-03-08T04:08:28;22.47;;;13.90;;
1062;SDS011;520;50.932;6.962;2024-03-08T04:11:12;17.10;;;11.20;;
1062;SDS011;520;50.932;6.962;2024-03-08T04:13:59;21.87;;;13.03;;
1062;SDS011;520;50.932;6.962;2024-03-08T04:16:41;20.13;;;13.33;;
1062;SDS011;520;50.932;6.962;2024-03-08T04:19:15;20.33;;;13.90;;
1062;SDS011;520;50.932;6.962;2024-03-08T04:21:50;21.03;;;13.43;;
1062;SDS011;520;50.932;6.962;2024-03-08T04:24:37;19.30;;;13.70;;
1062;SDS011;520;50.932;6.962;2024-03-08T04:27:15;19.43;;;13.50;;
1062;SDS011;520;50.932;6.962;2024-03-08T04:29:46;21.60;;;12.17;;
1062;SDS011;520;50.932;6.962;2024-03-08T04:32:23;20.00;;;11.27;;
1062;SDS011;520;50.932;6.962;2024-03-08T04:35:16;20.07;;;13.43;;
1062;SDS011;520;50.932;6.962;2024-03-08T04:37:46;20.70;;;12.77;;
1062;SDS011;520;50.932;6.962;2024-03-08T04:40:18;20.60;;;12.60;;
1062;SDS011;520;50.932;6.962;2024-03-08T04:42:59;22.33;;;13.10;;
1062;SDS011;520;50.932;6.962;2024-03-08T04:45:33;21.80;;;14.57;;
1062;SDS011;520;50.932;6.962;2024-03-08T04:48:05;19.77;;;13.53;;
1062;SDS011;520;50.932;6.962;2024-03-08T04:50:38;19.13;;;12.90;;
1062;SDS011;520;50.932;6.962;2024-03-08T04:53:11;19.30;;;14.00;;
1062;SDS011;520;50.932;6.962;2024-03-08T04:55:59;19.10;;;12.73;;
1062;SDS011;520;50.932;6.962;2024-03-08T04:58:45;20.17;;;13.13;;
1062;SDS011;520;50.932;6.962;2024-03-08T05:01:29;23.17;;;13.60;;
1062;SDS011;520;50.932;6.962;2024-03-08T05:04:05;23.37;;;12.70;;
1062;SDS011;520;50.932;6.962;2024-03-08T05:06:54;16.90;;;12.57;;
1062;SDS011;520;50.932;6.962;2024-03-08T05:09:39;21.03;;;14.67;;
1062;SDS011;520;50.932;6.962;2024-03-08T05:12:35;18.70;;;12.80;;
1062;SDS011;520;50.932;6.962;2024-03-08T05:15:25;21.40;;;13.07;;
1062;SDS011;520;50.932;6.962;2024-03-08T05:18:04;20.30;;;12.83;;
1062;SDS011;520;50.932;6.962;2024-03-08T05:20:36;19.90;;;12.20;;
1062;SDS011;520;50.932;6.962;2024-03-08T05:23:11;21.57;;;13.83;;
1062;SDS011;520;50.932;6.962;2024-03-08T05:25:40;18.70;;;12.50;;
1062;SDS011;520;50.932;6.962;2024-03-08T05:28:10;21.60;;;13.70;;
1062;SDS011;520;50.932;6.962;2024-03-08T05:30:53;22.50;;;13.97;;
1062;SDS011;520;50.932;6.962;2024-03-08T05:33:29;17.17;;;12.90;;
1062;SDS011;520;50.932;6.962;2024-03-08T05:36:07;23.23;;;13.13;;
1062;SDS011;520;50.932;6.962;2024-03-08T05:38:47;20.77;;;13.80;;
1062;SDS011;520;50.932;6.962;2024-03-08T05:41:18;24.57;;;14.03;;
1062;SDS011;520;50.932;6.962;2024-03-08T05:44:04;21.50;;;13.40;;
1062;SDS011;520;50.932;6.962;2024-03-08T05:46:37;22.87;;;13.43;;
1062;SDS011;520;50.932;6.962;2024-03-08T05:49:19;25.03;;;15.27;;
1062;SDS011;520;50.932;6.962;2024-03-08T05:51:56;23.10;;;13.80;;
1062;SDS011;520;50.932;6.962;2024-03-08T05:54:37;23.50;;;12.80;;
1062;SDS011;520;50.932;6.962;2024-03-08T05:57:25;25.13;;;15.03;;
1062;SDS011;520;50.932;6.962;2024-03-08T06:00:20;23.10;;;13.53;;
1062;SDS011;520;50.932;6.962;2024-03-08T06:03:00;25.73;;;14.87;;
1062;SDS011;520;50.932;6.962;2024-03-08T06:05:32;24.40;;;14.03;;
1062;SDS011;520;50.932;6.962;2024-03-08T06:08:38;28.13;;;15.00;;
1062;SDS011;520;50.932;6.962;2024-03-08T06:11:22;22.37;;;14.50;;
1062;SDS011;520;50.932;6.962;2024-03-08T06:13:58;24.07;;;15.07;;
1062;SDS011;520;50.932;6.962;2024-03-08T06:16:51;23.30;;;13.77;;
1062;SDS011;520;50.932;6.962;2024-03-08T06:19:25;35.43;;;15.80;;
1062;SDS011;520;50.932;6.962;2024-03-08T06:21:59;20.40;;;13.23;;
1062;SDS011;520;50.932;6.962;2024-03-08T06:24:43;24.27;;;14.40;;
1062;SDS011;520;50.932;6.962;2024-03-08T06:27:28;22.43;;;15.13;;
1062;SDS011;520;50.932;6.962;2024-03-08T06:30:18;24.93;;;13.43;;
1062;SDS011;520;50.932;6.962;2024-03-08T06:33:09;24.47;;;14.47;;
1062;SDS011;520;50.932;6.962;2024-03-08T06:35:40;23.80;;;14.57;;
1062;SDS011;520;50.932;6.962;2024-03-08T06:38:17;22.30;;;13.57;;
1062;SDS011;520;50.932;6.962;2024-03-08T06:41:06;21.07;;;13.87;;
1062;SDS011;520;50.932;6.962;2024-03-08T06:46:57;20.43;;;14.63;;
1062;SDS011;520;50.932;6.962;2024-03-08T06:52:36;23.50;;;12.97;;
1062;SDS011;520;50.932;6.962;2024-03-08T06:55:29;23.57;;;14.27;;
1062;SDS011;520;50.932;6.962;2024-03-08T06:58:20;22.73;;;12.67;;
1062;SDS011;520;50.932;6.962;2024-03-08T07:01:22;23.70;;;15.20;;
1062;SDS011;520;50.932;6.962;2024-03-08T07:04:11;21.70;;;14.43;;
1062;SDS011;520;50.932;6.962;2024-03-08T07:07:02;22.20;;;11.90;;
1062;SDS011;520;50.932;6.962;2024-03-08T07:09:46;23.40;;;15.40;;
1062;SDS011;520;50.932;6.962;2024-03-08T07:12:25;24.33;;;15.57;;
1062;SDS011;520;50.932;6.962;2024-03-08T07:15:04;21.80;;;14.20;;
1062;SDS011;520;50.932;6.962;2024-03-08T07:17:49;30.10;;;15.53;;
1062;SDS011;520;50.932;6.962;2024-03-08T07:20:56;20.73;;;14.27;;
1062;SDS011;520;50.932;6.962;2024-03-08T07:23:48;21.10;;;14.20;;
1062;SDS011;520;50.932;6.962;2024-03-08T07:29:34;24.73;;;16.30;;
1062;SDS011;520;50.932;6.962;2024-03-08T07:32:31;20.10;;;13.40;;
1062;SDS011;520;50.932;6.962;2024-03-08T07:35:48;19.13;;;11.63;;
1062;SDS011;520;50.932;6.962;2024-03-08T07:41:14;20.33;;;13.43;;
1062;SDS011;520;50.932;6.962;2024-03-08T07:43:56;22.97;;;14.20;;
1062;SDS011;520;50.932;6.962;2024-03-08T07:47:04;19.73;;;14.30;;
1062;SDS011;520;50.932;6.962;2024-03-08T07:50:02;17.20;;;12.43;;
1062;SDS011;520;50.932;6.962;2024-03-08T07:52:51;19.10;;;14.10;;
1062;SDS011;520;50.932;6.962;2024-03-08T07:55:44;16.90;;;14.10;;
1062;SDS011;520;50.932;6.962;2024-03-08T08:01:06;19.87;;;13.17;;
1062;SDS011;520;50.932;6.962;2024-03-08T08:04:35;16.23;;;13.03;;
1062;SDS011;520;50.932;6.962;2024-03-08T08:10:07;21.23;;;13.43;;
1062;SDS011;520;50.932;6.962;2024-03-08T08:21:02;20.80;;;13.73;;
1062;SDS011;520;50.932;6.962;2024-03-08T08:23:59;22.97;;;13.67;;
1062;SDS011;520;50.932;6.962;2024-03-08T08:27:30;17.13;;;11.30;;
1062;SDS011;520;50.932;6.962;2024-03-08T08:30:41;18.60;;;13.17;;
1062;SDS011;520;50.932;6.962;2024-03-08T08:37:32;13.67;;;9.27;;
1062;SDS011;520;50.932;6.962;2024-03-08T08:44:17;18.80;;;11.40;;
1062;SDS011;520;50.932;6.962;2024-03-08T08:47:30;20.90;;;14.00;;
1062;SDS011;520;50.932;6.962;2024-03-08T08:50:26;19.37;;;11.50;;
1062;SDS011;520;50.932;6.962;2024-03-08T08:56:45;13.90;;;9.60;;
1062;SDS011;520;50.932;6.962;2024-03-08T08:59:39;18.63;;;11.33;;
1062;SDS011;520;50.932;6.962;2024-03-08T09:02:23;18.27;;;12.23;;
1062;SDS011;520;50.932;6.962;2024-03-08T09:14:58;17.50;;;11.33;;
1062;SDS011;520;50.932;6.962;2024-03-08T09:21:36;14.43;;;10.40;;
1062;SDS011;520;50.932;6.962;2024-03-08T09:24:26;19.93;;;12.70;;
1062;SDS011;520;50.932;6.962;2024-03-08T09:27:09;12.30;;;9.73;;
1062;SDS011;520;50.932;6.962;2024-03-08T09:30:00;16.00;;;9.60;;
1062;SDS011;520;50.932;6.962;2024-03-08T09:32:41;18.73;;;12.10;;
1062;SDS011;520;50.932;6.962;2024-03-08T09:35:14;15.33;;;10.80;;
1062;SDS011;520;50.932;6.962;2024-03-08T09:37:55;15.57;;;9.97;;
1062;SDS011;520;50.932;6.962;2024-03-08T09:41:19;16.77;;;12.13;;
1062;SDS011;520;50.932;6.962;2024-03-08T09:44:00;12.40;;;7.73;;
1062;SDS011;520;50.932;6.962;2024-03-08T09:50:29;18.87;;;13.67;;
1062;SDS011;520;50.932;6.962;2024-03-08T09:53:11;9.07;;;7.67;;
1062;SDS011;520;50.932;6.962;2024-03-08T09:55:59;15.10;;;8.80;;
1062;SDS011;520;50.932;6.962;2024-03-08T09:58:30;13.33;;;8.20;;
1062;SDS011;520;50.932;6.962;2024-03-08T10:01:39;11.63;;;8.20;;
1062;SDS011;520;50.932;6.962;2024-03-08T10:04:22;13.80;;;10.00;;
1062;SDS011;520;50.932;6.962;2024-03-08T10:07:18;12.10;;;8.57;;
1062;SDS011;520;50.932;6.962;2024-03-08T10:10:20;12.17;;;8.27;;
1062;SDS011;520;50.932;6.962;2024-03-08T10:12:57;11.70;;;9.80;;
1062;SDS011;520;50.932;6.962;2024-03-08T10:15:28;10.87;;;7.93;;
1062;SDS011;520;50.932;6.962;2024-03-08T10:18:18;9.00;;;6.27;;
1062;SDS011;520;50.932;6.962;2024-03-08T10:21:04;10.40;;;7.47;;
1062;SDS011;520;50.932;6.962;2024-03-08T10:23:36;8.87;;;7.73;;
1062;SDS011;520;50.932;6.962;2024-03-08T10:26:26;11.37;;;8.30;;
1062;SDS011;520;50.932;6.962;2024-03-08T10:29:05;8.80;;;6.33;;
1062;SDS011;520;50.932;6.962;2024-03-08T10:31:45;12.23;;;8.87;;
1062;SDS011;520;50.932;6.962;2024-03-08T10:34:16;8.00;;;6.60;;
1062;SDS011;520;50.932;6.962;2024-03-08T10:37:04;8.13;;;5.40;;
1062;SDS011;520;50.932;6.962;2024-03-08T10:39:36;7.30;;;5.60;;
1062;SDS011;520;50.932;6.962;2024-03-08T10:42:17;7.07;;;6.23;;
1062;SDS011;520;50.932;6.962;2024-03-08T10:59:00;8.73;;;6.33;;
1062;SDS011;520;50.932;6.962;2024-03-08T11:01:47;10.10;;;7.50;;
1062;SDS011;520;50.932;6.962;2024-03-08T11:04:19;9.00;;;5.80;;
1062;SDS011;520;50.932;6.962;2024-03-08T11:07:16;7.17;;;5.27;;
1062;SDS011;520;50.932;6.962;2024-03-08T11:10:06;9.60;;;6.20;;
1062;SDS011;520;50.932;6.962;2024-03-08T11:13:19;8.57;;;6.20;;
1062;SDS011;520;50.932;6.962;2024-03-08T11:16:11;11.50;;;6.13;;
1062;SDS011;520;50.932;6.962;2024-03-08T11:18:59;9.57;;;7.57;;
1062;SDS011;520;50.932;6.962;2024-03-08T11:22:02;9.67;;;7.50;;
1062;SDS011;520;50.932;6.962;2024-03-08T11:24:43;9.63;;;7.70;;
1062;SDS011;520;50.932;6.962;2024-03-08T11:28:15;8.17;;;5.83;;
1062;SDS011;520;50.932;6.962;2024-03-08T11:33:53;9.37;;;6.90;;
1062;SDS011;520;50.932;6.962;2024-03-08T11:36:24;10.00;;;7.27;;
1062;SDS011;520;50.932;6.962;2024-03-08T11:39:11;6.10;;;5.20;;
1062;SDS011;520;50.932;6.962;2024-03-08T11:45:46;9.00;;;7.30;;
1062;SDS011;520;50.932;6.962;2024-03-08T11:49:23;10.77;;;6.83;;
1062;SDS011;520;50.932;6.962;2024-03-08T11:52:30;10.97;;;8.63;;
1062;SDS011;520;50.932;6.962;2024-03-08T11:57:58;11.27;;;7.90;;
1062;SDS011;520;50.932;6.962;2024-03-08T12:06:27;9.70;;;7.00;;
1062;SDS011;520;50.932;6.962;2024-03-08T12:09:34;11.30;;;6.67;;
1062;SDS011;520;50.932;6.962;2024-03-08T12:12:17;11.43;;;7.00;;
1062;SDS011;520;50.932;6.962;2024-03-08T12:15:09;7.37;;;6.33;;
1062;SDS011;520;50.932;6.962;2024-03-08T12:17:55;7.50;;;6.10;;
1062;SDS011;520;50.932;6.962;2024-03-08T12:20:39;10.13;;;6.10;;
1062;SDS011;520;50.932;6.962;2024-03-08T12:23:23;11.10;;;8.37;;
1062;SDS011;520;50.932;6.962;2024-03-08T12:26:24;8.20;;;6.60;;
1062;SDS011;520;50.932;6.962;2024-03-08T12:29:09;10.00;;;7.30;;
1062;SDS011;520;50.932;6.962;2024-03-08T12:32:00;7.77;;;5.50;;
1062;SDS011;520;50.932;6.962;2024-03-08T12:34:39;10.30;;;7.80;;
1062;SDS011;520;50.932;6.962;2024-03-08T12:37:21;10.00;;;8.10;;
1062;SDS011;520;50.932;6.962;2024-03-08T12:43:19;7.73;;;6.00;;
1062;SDS011;520;50.932;6.962;2024-03-08T12:46:01;5.53;;;5.00;;
1062;SDS011;520;50.932;6.962;2024-03-08T12:48:37;8.03;;;6.67;;
1062;SDS011;520;50.932;6.962;2024-03-08T12:51:17;8.87;;;7.07;;
1062;SDS011;520;50.932;6.962;2024-03-08T12:53:51;9.77;;;6.40;;
1062;SDS011;520;50.932;6.962;2024-03-08T12:56:29;11.87;;;8.53;;
1062;SDS011;520;50.932;6.962;2024-03-08T12:59:06;8.30;;;7.03;;
1062;SDS011;520;50.932;6.962;2024-03-08T13:01:39;11.63;;;8.07;;
1062;SDS011;520;50.932;6.962;2024-03-08T13:04:21;8.80;;;7.40;;
1062;SDS011;520;50.932;6.962;2024-03-08T13:06:51;7.10;;;5.83;;
1062;SDS011;520;50.932;6.962;2024-03-08T13:09:37;11.20;;;6.70;;
1062;SDS011;520;50.932;6.962;2024-03-08T13:12:07;8.67;;;6.73;;
1062;SDS011;520;50.932;6.962;2024-03-08T13:14:42;9.73;;;7.60;;
1062;SDS011;520;50.932;6.962;2024-03-08T13:17:11;9.40;;;6.00;;
1062;SDS011;520;50.932;6.962;2024-03-08T13:19:57;9.30;;;6.30;;
1062;SDS011;520;50.932;6.962;2024-03-08T13:23:00;8.20;;;6.67;;
1062;SDS011;520;50.932;6.962;2024-03-08T13:25:35;8.50;;;7.30;;
1062;SDS011;520;50.932;6.962;2024-03-08T13:31:25;12.87;;;6.80;;
1062;SDS011;520;50.932;6.962;2024-03-08T13:34:07;6.80;;;5.83;;
1062;SDS011;520;50.932;6.962;2024-03-08T13:36:40;10.10;;;7.70;;
1062;SDS011;520;50.932;6.962;2024-03-08T13:39:13;9.40;;;6.80;;
1062;SDS011;520;50.932;6.962;2024-03-08T13:42:02;7.10;;;6.40;;
1062;SDS011;520;50.932;6.962;2024-03-08T13:44:36;8.17;;;6.93;;
1062;SDS011;520;50.932;6.962;2024-03-08T13:47:21;7.73;;;5.90;;
1062;SDS011;520;50.932;6.962;2024-03-08T13:50:03;8.73;;;6.73;;
1062;SDS011;520;50.932;6.962;2024-03-08T13:52:48;7.90;;;6.60;;
1062;SDS011;520;50.932;6.962;2024-03-08T13:55:33;7.93;;;7.07;;
1062;SDS011;520;50.932;6.962;2024-03-08T13:58:04;9.93;;;6.80;;
1062;SDS011;520;50.932;6.962;2024-03-08T14:03:25;8.63;;;6.70;;
1062;SDS011;520;50.932;6.962;2024-03-08T14:05:53;10.13;;;6.80;;
1062;SDS011;520;50.932;6.962;2024-03-08T14:08:28;8.30;;;6.73;;
1062;SDS011;520;50.932;6.962;2024-03-08T14:11:07;7.47;;;6.30;;
1062;SDS011;520;50.932;6.962;2024-03-08T14:13:52;9.57;;;7.27;;
1062;SDS011;520;50.932;6.962;2024-03-08T14:16:24;7.20;;;6.20;;
1062;SDS011;520;50.932;6.962;2024-03-08T14:19:14;10.60;;;7.13;;
1062;SDS011;520;50.932;6.962;2024-03-08T14:21:44;7.57;;;5.83;;
1062;SDS011;520;50.932;6.962;2024-03-08T14:24:33;8.47;;;6.23;;
1062;SDS011;520;50.932;6.962;2024-03-08T14:27:05;7.67;;;6.07;;
1062;SDS011;520;50.932;6.962;2024-03-08T14:29:51;7.50;;;6.20;;
1062;SDS011;520;50.932;6.962;2024-03-08T14:32:21;7.90;;;5.67;;
1062;SDS011;520;50.932;6.962;2024-03-08T14:34:56;10.80;;;7.50;;
1062;SDS011;520;50.932;6.962;2024-03-08T14:37:26;9.33;;;7.10;;
1062;SDS011;520;50.932;6.962;2024-03-08T14:42:45;9.13;;;6.70;;
1062;SDS011;520;50.932;6.962;2024-03-08T14:45:25;9.00;;;6.73;;
1062;SDS011;520;50.932;6.962;2024-03-08T14:48:20;11.73;;;7.07;;
1062;SDS011;520;50.932;6.962;2024-03-08T14:51:00;9.47;;;7.30;;
1062;SDS011;520;50.932;6.962;2024-03-08T14:53:56;10.13;;;8.27;;
1062;SDS011;520;50.932;6.962;2024-03-08T14:56:24;10.13;;;8.40;;
1062;SDS011;520;50.932;6.962;2024-03-08T14:58:55;8.37;;;7.53;;
1062;SDS011;520;50.932;6.962;2024-03-08T15:01:40;9.50;;;6.57;;
1062;SDS011;520;50.932;6.962;2024-03-08T15:04:15;9.70;;;7.37;;
1062;SDS011;520;50.932;6.962;2024-03-08T15:06:45;8.70;;;6.23;;
1062;SDS011;520;50.932;6.962;2024-03-08T15:09:17;9.30;;;6.80;;
1062;SDS011;520;50.932;6.962;2024-03-08T15:11:58;9.63;;;7.30;;
1062;SDS011;520;50.932;6.962;2024-03-08T15:14:42;9.30;;;7.40;;
1062;SDS011;520;50.932;6.962;2024-03-08T15:17:16;11.17;;;6.53;;
1062;SDS011;520;50.932;6.962;2024-03-08T15:19:52;11.93;;;8.30;;
1062;SDS011;520;50.932;6.962;2024-03-08T15:22:26;10.00;;;5.90;;
1062;SDS011;520;50.932;6.962;2024-03-08T15:25:10;10.80;;;6.40;;
1062;SDS011;520;50.932;6.962;2024-03-08T15:27:47;11.10;;;7.07;;
1062;SDS011;520;50.932;6.962;2024-03-08T15:30:17;10.83;;;6.57;;
1062;SDS011;520;50.932;6.962;2024-03-08T15:32:53;10.40;;;7.10;;
1062;SDS011;520;50.932;6.962;2024-03-08T15:35:24;6.93;;;5.13;;
1062;SDS011;520;50.932;6.962;2024-03-08T15:37:55;7.40;;;6.13;;
1062;SDS011;520;50.932;6.962;2024-03-08T15:40:28;6.70;;;4.43;;
1062;SDS011;520;50.932;6.962;2024-03-08T15:42:58;6.47;;;4.87;;
1062;SDS011;520;50.932;6.962;2024-03-08T15:45:40;8.67;;;5.50;;
1062;SDS011;520;50.932;6.962;2024-03-08T15:50:54;7.67;;;6.50;;
1062;SDS011;520;50.932;6.962;2024-03-08T15:53:50;6.57;;;5.87;;
1062;SDS011;520;50.932;6.962;2024-03-08T15:56:28;7.47;;;6.07;;
1062;SDS011;520;50.932;6.962;2024-03-08T15:59:09;8.57;;;6.40;;
1062;SDS011;520;50.932;6.962;2024-03-08T16:01:51;7.70;;;5.73;;
1062;SDS011;520;50.932;6.962;2024-03-08T16:06:57;8.33;;;6.77;;
1062;SDS011;520;50.932;6.962;2024-03-08T16:09:29;8.97;;;6.63;;
1062;SDS011;520;50.932;6.962;2024-03-08T16:12:13;7.67;;;5.73;;
1062;SDS011;520;50.932;6.962;2024-03-08T16:14:57;8.10;;;5.70;;
1062;SDS011;520;50.932;6.962;2024-03-08T16:17:41;7.80;;;6.03;;
1062;SDS011;520;50.932;6.962;2024-03-08T16:20:14;7.57;;;6.40;;
1062;SDS011;520;50.932;6.962;2024-03-08T16:22:47;7.10;;;5.80;;
1062;SDS011;520;50.932;6.962;2024-03-08T16:25:32;10.00;;;7.10;;
1062;SDS011;520;50.932;6.962;2024-03-08T16:28:08;8.73;;;6.93;;
1062;SDS011;520;50.932;6.962;2024-03-08T16:30:53;9.47;;;7.80;;
1062;SDS011;520;50.932;6.962;2024-03-08T16:33:22;11.07;;;7.83;;
1062;SDS011;520;50.932;6.962;2024-03-08T16:35:50;10.50;;;7.80;;
1062;SDS011;520;50.932;6.962;2024-03-08T16:38:20;11.63;;;7.77;;
1062;SDS011;520;50.932;6.962;2024-03-08T16:40:53;9.33;;;7.67;;
1062;SDS011;520;50.932;6.962;2024-03-08T16:43:31;8.53;;;6.77;;
1062;SDS011;520;50.932;6.962;2024-03-08T16:46:03;10.50;;;7.07;;
1062;SDS011;520;50.932;6.962;2024-03-08T16:48:39;11.60;;;6.60;;
1062;SDS011;520;50.932;6.962;2024-03-08T16:51:11;9.77;;;7.00;;
1062;SDS011;520;50.932;6.962;2024-03-08T16:54:22;10.80;;;7.87;;
1062;SDS011;520;50.932;6.962;2024-03-08T16:57:03;12.33;;;7.87;;
1062;SDS011;520;50.932;6.962;2024-03-08T16:59:36;9.67;;;8.03;;
1062;SDS011;520;50.932;6.962;2024-03-08T17:02:39;11.43;;;7.80;;
1062;SDS011;520;50.932;6.962;2024-03-08T17:05:18;13.60;;;6.87;;
1062;SDS011;520;50.932;6.962;2024-03-08T17:08:01;11.57;;;7.53;;
1062;SDS011;520;50.932;6.962;2024-03-08T17:10:52;10.00;;;7.90;;
1062;SDS011;520;50.932;6.962;2024-03-08T17:13:38;11.50;;;7.70;;
1062;SDS011;520;50.932;6.962;2024-03-08T17:16:33;11.30;;;7.23;;
1062;SDS011;520;50.932;6.962;2024-03-08T17:19:37;13.00;;;8.70;;
1062;SDS011;520;50.932;6.962;2024-03-08T17:22:14;10.57;;;7.90;;
1062;SDS011;520;50.932;6.962;2024-03-08T17:24:43;8.60;;;6.43;;
1062;SDS011;520;50.932;6.962;2024-03-08T17:27:28;10.77;;;9.00;;
1062;SDS011;520;50.932;6.962;2024-03-08T17:30:00;8.30;;;6.67;;
1062;SDS011;520;50.932;6.962;2024-03-08T17:32:53;11.90;;;8.57;;
1062;SDS011;520;50.932;6.962;2024-03-08T17:35:27;13.10;;;8.60;;
1062;SDS011;520;50.932;6.962;2024-03-08T17:38:06;10.30;;;7.00;;
1062;SDS011;520;50.932;6.962;2024-03-08T17:40:54;13.03;;;8.77;;
1062;SDS011;520;50.932;6.962;2024-03-08T17:43:29;12.03;;;8.73;;
1062;SDS011;520;50.932;6.962;2024-03-08T17:46:16;12.57;;;8.53;;
1062;SDS011;520;50.932;6.962;2024-03-08T17:49:00;12.97;;;8.27;;
1062;SDS011;520;50.932;6.962;2024-03-08T17:51:38;14.00;;;8.40;;
1062;SDS011;520;50.932;6.962;2024-03-08T17:54:22;12.37;;;7.00;;
1062;SDS011;520;50.932;6.962;2024-03-08T17:57:04;13.17;;;8.73;;
1062;SDS011;520;50.932;6.962;2024-03-08T18:02:55;14.83;;;9.10;;
1062;SDS011;520;50.932;6.962;2024-03-08T18:05:32;10.80;;;8.70;;
1062;SDS011;520;50.932;6.962;2024-03-08T18:11:56;15.27;;;9.23;;
1062;SDS011;520;50.932;6.962;2024-03-08T18:14:30;12.90;;;8.80;;
1062;SDS011;520;50.932;6.962;2024-03-08T18:17:04;15.23;;;9.17;;
1062;SDS011;520;50.932;6.962;2024-03-08T18:19:51;14.23;;;9.17;;
1062;SDS011;520;50.932;6.962;2024-03-08T18:22:30;15.30;;;8.83;;
1062;SDS011;520;50.932;6.962;2024-03-08T18:25:04;12.20;;;8.90;;
1062;SDS011;520;50.932;6.962;2024-03-08T18:27:57;16.03;;;9.40;;
1062;SDS011;520;50.932;6.962;2024-03-08T18:30:41;13.03;;;8.90;;
1062;SDS011;520;50.932;6.962;2024-03-08T18:33:12;12.10;;;8.83;;
1062;SDS011;520;50.932;6.962;2024-03-08T18:35:51;16.03;;;10.03;;
1062;SDS011;520;50.932;6.962;2024-03-08T18:38:24;12.27;;;9.40;;
1062;SDS011;520;50.932;6.962;2024-03-08T18:40:55;13.07;;;9.10;;
1062;SDS011;520;50.932;6.962;2024-03-08T18:43:42;14.90;;;9.80;;
1062;SDS011;520;50.932;6.962;2024-03-08T18:49:55;12.70;;;8.93;;
1062;SDS011;520;50.932;6.962;2024-03-08T18:52:35;10.93;;;8.17;;
1062;SDS011;520;50.932;6.962;2024-03-08T18:55:04;13.50;;;9.90;;
1062;SDS011;520;50.932;6.962;2024-03-08T18:57:55;13.50;;;8.87;;
1062;SDS011;520;50.932;6.962;2024-03-08T19:00:43;14.53;;;9.53;;
1062;SDS011;520;50.932;6.962;2024-03-08T19:03:35;14.20;;;9.23;;
1062;SDS011;520;50.932;6.962;2024-03-08T19:06:06;14.77;;;9.80;;
1062;SDS011;520;50.932;6.962;2024-03-08T19:08:43;15.50;;;10.50;;
1062;SDS011;520;50.932;6.962;2024-03-08T19:11:23;12.70;;;9.40;;